createdAt,value
2023-11-27T00:01:02.147Z,2.60
2023-11-27T00:03:29.495Z,2.60
2023-11-27T00:05:56.646Z,2.60
2023-11-27T00:08:23.905Z,2.40
2023-11-27T00:10:51.191Z,2.40
2023-11-27T00:13:18.531Z,2.50
2023-11-27T00:15:46.105Z,2.50
2023-11-27T00:18:13.302Z,2.50
2023-11-27T00:20:42.670Z,2.50
2023-11-27T00:23:11.389Z,2.50
2023-11-27T00:25:39.340Z,2.40
2023-11-27T00:28:07.660Z,2.40
2023-11-27T00:30:34.980Z,2.40
2023-11-27T00:33:02.338Z,2.20
2023-11-27T00:35:30.022Z,2.10
2023-11-27T00:37:59.510Z,2.00
2023-11-27T00:40:27.195Z,1.90
2023-11-27T00:42:54.585Z,1.80
2023-11-27T00:45:21.813Z,1.90
2023-11-27T00:47:49.219Z,2.00
2023-11-27T00:50:16.449Z,1.90
2023-11-27T00:52:44.075Z,1.70
2023-11-27T00:55:12.001Z,1.60
2023-11-27T00:57:39.776Z,1.60
2023-11-27T01:00:08.372Z,1.60
2023-11-27T01:02:35.852Z,1.60
2023-11-27T01:05:04.621Z,1.60
2023-11-27T01:07:31.881Z,1.60
2023-11-27T01:10:00.713Z,1.70
2023-11-27T01:12:28.644Z,1.60
2023-11-27T01:14:56.469Z,1.60
2023-11-27T01:17:23.826Z,1.60
2023-11-27T01:19:51.129Z,1.60
2023-11-27T01:22:21.048Z,1.70
2023-11-27T01:24:48.486Z,1.70
2023-11-27T01:27:15.851Z,1.70
2023-11-27T01:29:43.218Z,1.80
2023-11-27T01:32:10.552Z,1.80
2023-11-27T01:34:37.927Z,1.70
2023-11-27T01:37:05.728Z,1.50
2023-11-27T01:39:34.838Z,1.50
2023-11-27T01:42:02.099Z,1.50
2023-11-27T01:44:29.477Z,1.50
2023-11-27T01:46:57.196Z,1.50
2023-11-27T01:49:25.242Z,1.50
2023-11-27T01:51:52.943Z,1.50
2023-11-27T01:54:21.069Z,1.50
2023-11-27T01:56:51.642Z,1.40
2023-11-27T01:59:19.306Z,1.30
2023-11-27T02:01:46.853Z,1.30
2023-11-27T02:04:14.369Z,1.20
2023-11-27T02:06:41.652Z,1.20
2023-11-27T02:09:09.358Z,1.20
2023-11-27T02:11:49.659Z,1.30
2023-11-27T02:14:17.682Z,1.30
2023-11-27T02:16:49.638Z,1.30
2023-11-27T02:19:17.006Z,1.50
2023-11-27T02:21:45.640Z,1.40
2023-11-27T02:24:13.026Z,1.30
2023-11-27T02:26:40.296Z,1.30
2023-11-27T02:29:07.530Z,1.30
2023-11-27T02:31:35.442Z,1.40
2023-11-27T02:34:04.828Z,1.40
2023-11-27T02:36:41.440Z,1.30
2023-11-27T02:39:08.865Z,1.40
2023-11-27T02:41:39.709Z,1.30
2023-11-27T02:44:07.679Z,1.40
2023-11-27T02:46:35.152Z,1.50
2023-11-27T02:49:03.075Z,1.30
2023-11-27T02:51:30.410Z,1.30
2023-11-27T02:53:57.706Z,1.30
2023-11-27T02:56:26.173Z,1.30
2023-11-27T02:58:57.304Z,1.40
2023-11-27T03:01:28.386Z,1.30
2023-11-27T03:03:56.404Z,1.30
2023-11-27T03:06:23.812Z,1.20
2023-11-27T03:08:53.199Z,1.20
2023-11-27T03:11:20.964Z,1.20
2023-11-27T03:13:48.391Z,1.20
2023-11-27T03:16:15.763Z,1.20
2023-11-27T03:18:43.235Z,1.20
2023-11-27T03:21:23.129Z,1.20
2023-11-27T03:23:50.428Z,1.30
2023-11-27T03:26:19.875Z,1.20
2023-11-27T03:28:47.265Z,1.20
2023-11-27T03:31:14.781Z,1.20
2023-11-27T03:33:42.148Z,1.30
2023-11-27T03:36:09.827Z,1.20
2023-11-27T03:38:37.128Z,1.40
2023-11-27T03:41:05.138Z,1.40
2023-11-27T03:43:33.464Z,1.30
2023-11-27T03:46:01.564Z,1.40
2023-11-27T03:48:28.969Z,1.40
2023-11-27T03:50:56.321Z,1.30
2023-11-27T03:53:23.957Z,1.30
2023-11-27T03:55:51.346Z,1.30
2023-11-27T03:58:18.601Z,1.40
2023-11-27T04:00:46.384Z,1.40
2023-11-27T04:03:13.670Z,1.30
2023-11-27T04:05:41.528Z,1.30
2023-11-27T04:08:09.303Z,1.20
2023-11-27T04:10:38.999Z,1.20
2023-11-27T04:13:06.345Z,1.20
2023-11-27T04:15:33.852Z,1.20
2023-11-27T04:18:01.710Z,1.20
2023-11-27T04:20:29.063Z,1.20
2023-11-27T04:22:58.512Z,1.20
2023-11-27T04:25:25.893Z,1.20
2023-11-27T04:27:53.183Z,1.10
2023-11-27T04:30:20.891Z,1.10
2023-11-27T04:32:48.138Z,1.10
2023-11-27T04:35:15.508Z,1.10
2023-11-27T04:37:42.873Z,1.00
2023-11-27T04:40:12.158Z,1.00
2023-11-27T04:42:39.594Z,1.00
2023-11-27T04:45:10.572Z,0.90
2023-11-27T04:47:37.951Z,0.80
2023-11-27T04:50:05.624Z,0.80
2023-11-27T04:52:33.032Z,0.80
2023-11-27T04:55:00.418Z,0.80
2023-11-27T04:57:29.128Z,0.70
2023-11-27T04:59:56.691Z,0.70
2023-11-27T05:02:24.699Z,0.70
2023-11-27T05:04:52.571Z,0.80
2023-11-27T05:07:20.411Z,0.90
2023-11-27T05:09:54.109Z,0.90
2023-11-27T05:12:27.154Z,0.90
2023-11-27T05:15:00.254Z,0.90
2023-11-27T05:17:29.823Z,0.90
2023-11-27T05:19:57.811Z,0.90
2023-11-27T05:22:25.113Z,0.90
2023-11-27T05:24:52.522Z,0.80
2023-11-27T05:27:19.693Z,0.80
2023-11-27T05:29:48.372Z,0.80
2023-11-27T05:32:15.725Z,0.80
2023-11-27T05:34:43.056Z,1.00
2023-11-27T05:37:10.517Z,1.00
2023-11-27T05:39:38.757Z,0.80
2023-11-27T05:42:06.434Z,0.80
2023-11-27T05:44:33.822Z,0.80
2023-11-27T05:47:03.202Z,0.70
2023-11-27T05:49:33.490Z,0.70
2023-11-27T05:52:01.079Z,0.70
2023-11-27T05:54:28.677Z,0.70
2023-11-27T05:56:56.208Z,0.70
2023-11-27T05:59:23.488Z,0.80
2023-11-27T06:01:52.037Z,0.80
2023-11-27T06:04:19.382Z,0.90
2023-11-27T06:06:46.538Z,0.90
2023-11-27T06:09:14.866Z,0.80
2023-11-27T06:11:42.171Z,0.80
2023-11-27T06:14:09.461Z,0.80
2023-11-27T06:16:36.771Z,0.90
2023-11-27T06:19:06.354Z,0.90
2023-11-27T06:21:33.720Z,0.90
2023-11-27T06:24:01.128Z,0.90
2023-11-27T06:26:28.459Z,0.90
2023-11-27T06:28:55.603Z,1.00
2023-11-27T06:31:22.885Z,1.00
2023-11-27T06:33:50.221Z,0.90
2023-11-27T06:36:17.421Z,0.90
2023-11-27T06:38:44.865Z,1.00
2023-11-27T06:41:13.051Z,1.00
2023-11-27T06:43:40.547Z,1.00
2023-11-27T06:46:13.539Z,1.00
2023-11-27T06:48:41.224Z,0.90
2023-11-27T06:51:10.038Z,1.00
2023-11-27T06:53:38.854Z,1.00
2023-11-27T06:56:07.164Z,1.00
2023-11-27T06:58:34.613Z,1.10
2023-11-27T07:01:05.287Z,1.10
2023-11-27T07:03:33.552Z,1.10
2023-11-27T07:06:00.840Z,1.10
2023-11-27T07:08:28.759Z,1.10
2023-11-27T07:10:56.573Z,1.10
2023-11-27T07:13:26.441Z,1.10
2023-11-27T07:15:54.053Z,1.10
2023-11-27T07:18:23.957Z,1.10
2023-11-27T07:20:54.346Z,1.20
2023-11-27T07:23:24.408Z,1.20
2023-11-27T07:25:52.749Z,1.30
2023-11-27T07:28:20.085Z,1.30
2023-11-27T07:30:50.050Z,1.40
2023-11-27T07:33:20.255Z,1.40
2023-11-27T07:35:47.446Z,1.40
2023-11-27T07:38:16.035Z,1.50
2023-11-27T07:40:46.410Z,1.50
2023-11-27T07:43:13.712Z,1.50
2023-11-27T07:45:41.318Z,1.50
2023-11-27T07:48:08.817Z,1.50
2023-11-27T07:50:37.104Z,1.60
2023-11-27T07:53:04.687Z,1.50
2023-11-27T07:55:34.129Z,1.60
2023-11-27T07:58:04.296Z,1.60
2023-11-27T08:00:38.689Z,1.70
2023-11-27T08:03:06.004Z,1.80
2023-11-27T08:05:33.404Z,1.80
2023-11-27T08:08:03.310Z,1.80
2023-11-27T08:10:32.641Z,1.80
2023-11-27T08:13:00.104Z,1.80
2023-11-27T08:15:30.035Z,1.80
2023-11-27T08:17:57.915Z,1.80
2023-11-27T08:20:29.935Z,1.80
2023-11-27T08:22:59.790Z,1.90
2023-11-27T08:25:28.933Z,2.00
2023-11-27T08:27:58.692Z,2.10
2023-11-27T08:30:29.103Z,2.30
2023-11-27T08:32:56.577Z,2.40
2023-11-27T08:35:23.875Z,2.50
2023-11-27T08:37:51.603Z,2.50
2023-11-27T08:40:18.920Z,2.50
2023-11-27T08:42:47.325Z,2.50
2023-11-27T08:45:18.361Z,2.60
2023-11-27T08:47:57.814Z,2.60
2023-11-27T08:50:28.989Z,2.60
2023-11-27T08:53:00.283Z,2.70
2023-11-27T08:55:32.086Z,2.70
2023-11-27T08:58:05.795Z,2.70
2023-11-27T09:00:33.940Z,2.70
2023-11-27T09:03:03.844Z,2.80
2023-11-27T09:05:35.121Z,2.80
2023-11-27T09:08:07.794Z,2.80
2023-11-27T09:10:37.430Z,2.90
2023-11-27T09:13:08.873Z,2.80
2023-11-27T09:15:36.406Z,2.90
2023-11-27T09:18:04.128Z,3.00
2023-11-27T09:20:31.379Z,3.20
2023-11-27T09:22:59.739Z,3.30
2023-11-27T09:25:28.557Z,3.20
2023-11-27T09:27:55.840Z,3.30
2023-11-27T09:30:23.454Z,3.50
2023-11-27T09:32:52.487Z,3.60
2023-11-27T09:35:22.085Z,3.60
2023-11-27T09:37:49.694Z,3.70
2023-11-27T09:40:21.613Z,3.90
2023-11-27T09:42:49.576Z,4.00
2023-11-27T09:45:18.484Z,4.10
2023-11-27T09:47:50.531Z,4.10
2023-11-27T09:50:20.764Z,4.00
2023-11-27T09:53:04.627Z,4.20
2023-11-27T09:55:49.043Z,4.20
2023-11-27T09:58:18.210Z,4.20
2023-11-27T10:00:50.191Z,4.20
2023-11-27T10:03:18.034Z,4.30
2023-11-27T10:05:46.786Z,4.30
2023-11-27T10:08:14.946Z,4.20
2023-11-27T10:10:47.644Z,4.20
2023-11-27T10:13:21.853Z,4.20
2023-11-27T10:15:59.806Z,4.00
2023-11-27T10:18:27.423Z,3.90
2023-11-27T10:20:56.204Z,4.00
2023-11-27T10:23:23.843Z,4.10
2023-11-27T10:25:58.562Z,4.20
2023-11-27T10:28:40.798Z,4.30
2023-11-27T10:31:08.240Z,4.40
2023-11-27T10:33:36.688Z,4.40
2023-11-27T10:36:06.792Z,4.30
2023-11-27T10:38:37.621Z,4.30
2023-11-27T10:41:07.330Z,4.40
2023-11-27T10:43:42.931Z,4.60
2023-11-27T10:46:11.281Z,4.70
2023-11-27T10:48:44.574Z,4.80
2023-11-27T10:51:17.841Z,5.00
2023-11-27T10:53:47.964Z,5.20
2023-11-27T10:56:16.501Z,5.20
2023-11-27T10:58:46.243Z,5.30
2023-11-27T11:01:17.632Z,5.30
2023-11-27T11:03:49.249Z,5.30
2023-11-27T11:06:19.936Z,5.40
2023-11-27T11:08:51.570Z,5.50
2023-11-27T11:11:24.965Z,5.60
2023-11-27T11:13:53.466Z,5.80
2023-11-27T11:16:37.737Z,5.90
2023-11-27T11:19:13.881Z,6.10
2023-11-27T11:22:15.894Z,6.10
2023-11-27T11:25:05.334Z,6.30
2023-11-27T11:28:06.212Z,6.40
2023-11-27T11:30:38.141Z,6.40
2023-11-27T11:33:20.231Z,6.40
2023-11-27T11:35:52.075Z,6.40
2023-11-27T11:38:22.272Z,6.30
2023-11-27T11:40:50.019Z,6.30
2023-11-27T11:43:17.524Z,6.20
2023-11-27T11:45:48.252Z,6.20
2023-11-27T11:48:16.759Z,6.20
2023-11-27T11:50:49.453Z,6.20
2023-11-27T11:53:22.662Z,6.20
2023-11-27T11:55:55.208Z,6.10
2023-11-27T11:58:23.910Z,6.10
2023-11-27T12:01:02.849Z,6.20
2023-11-27T12:03:34.763Z,6.20
2023-11-27T12:06:04.862Z,6.00
2023-11-27T12:08:33.129Z,6.10
2023-11-27T12:11:02.625Z,6.10
2023-11-27T12:13:37.314Z,6.10
2023-11-27T12:16:14.876Z,6.10
2023-11-27T12:18:52.725Z,6.00
2023-11-27T12:21:26.884Z,6.00
2023-11-27T12:23:55.855Z,6.00
2023-11-27T12:26:26.023Z,6.00
2023-11-27T12:28:54.671Z,6.00
2023-11-27T12:31:26.301Z,6.00
2023-11-27T12:33:55.759Z,6.00
2023-11-27T12:36:25.653Z,5.90
2023-11-27T12:38:58.922Z,5.90
2023-11-27T12:41:34.363Z,5.80
2023-11-27T12:44:18.634Z,5.80
2023-11-27T12:46:51.872Z,5.70
2023-11-27T12:49:24.041Z,5.70
2023-11-27T12:51:59.069Z,5.60
2023-11-27T12:54:29.994Z,5.50
2023-11-27T12:57:03.648Z,5.50
2023-11-27T12:59:31.038Z,5.50
2023-11-27T13:02:03.596Z,5.60
2023-11-27T13:04:33.558Z,5.50
2023-11-27T13:07:07.243Z,5.40
2023-11-27T13:09:35.982Z,5.40
2023-11-27T13:12:17.430Z,5.30
2023-11-27T13:14:48.017Z,5.20
2023-11-27T13:17:22.417Z,5.20
2023-11-27T13:19:58.176Z,5.30
2023-11-27T13:22:33.860Z,5.20
2023-11-27T13:25:07.296Z,5.30
2023-11-27T13:27:43.004Z,5.30
2023-11-27T13:30:10.931Z,5.20
2023-11-27T13:32:38.428Z,5.20
2023-11-27T13:35:07.721Z,5.20
2023-11-27T13:37:36.809Z,5.30
2023-11-27T13:40:06.309Z,5.30
2023-11-27T13:42:37.617Z,5.30
2023-11-27T13:45:10.297Z,5.30
2023-11-27T13:47:40.908Z,5.30
2023-11-27T13:50:10.444Z,5.20
2023-11-27T13:52:43.417Z,5.10
2023-11-27T13:55:11.904Z,5.10
2023-11-27T13:57:43.078Z,5.00
2023-11-27T14:00:25.373Z,4.90
2023-11-27T14:02:54.273Z,4.90
2023-11-27T14:05:23.182Z,4.90
2023-11-27T14:07:54.879Z,5.00
2023-11-27T14:10:50.764Z,5.10
2023-11-27T14:13:19.716Z,5.00
2023-11-27T14:15:49.264Z,5.10
2023-11-27T14:18:22.023Z,5.00
2023-11-27T14:21:29.243Z,5.10
2023-11-27T14:23:58.791Z,5.00
2023-11-27T14:26:44.554Z,5.00
2023-11-27T14:29:20.154Z,4.90
2023-11-27T14:31:50.108Z,5.00
2023-11-27T14:34:22.085Z,4.90
2023-11-27T14:36:49.309Z,4.80
2023-11-27T14:39:20.726Z,4.80
2023-11-27T14:41:52.869Z,4.80
2023-11-27T14:44:22.079Z,4.80
2023-11-27T14:46:52.608Z,4.70
2023-11-27T14:49:24.246Z,4.70
2023-11-27T14:51:51.887Z,4.60
2023-11-27T14:54:21.266Z,4.60
2023-11-27T14:56:48.536Z,4.60
2023-11-27T14:59:15.848Z,4.60
2023-11-27T15:01:44.618Z,4.60
2023-11-27T15:04:14.444Z,4.50
2023-11-27T15:06:45.309Z,4.50
2023-11-27T15:09:23.584Z,4.40
2023-11-27T15:11:55.176Z,4.30
2023-11-27T15:14:24.080Z,4.30
2023-11-27T15:16:52.263Z,4.20
2023-11-27T15:19:21.781Z,4.20
2023-11-27T15:21:49.213Z,4.20
2023-11-27T15:24:17.545Z,4.30
2023-11-27T15:26:47.639Z,4.30
2023-11-27T15:29:15.059Z,4.20
2023-11-27T15:31:42.416Z,4.30
2023-11-27T15:34:12.435Z,4.30
2023-11-27T15:36:40.510Z,4.30
2023-11-27T15:39:24.455Z,4.30
2023-11-27T15:41:53.396Z,4.20
2023-11-27T15:44:20.684Z,4.30
2023-11-27T15:46:48.845Z,4.20
2023-11-27T15:49:17.501Z,4.20
2023-11-27T15:51:45.040Z,4.10
2023-11-27T15:54:12.587Z,4.20
2023-11-27T15:56:39.742Z,4.10
2023-11-27T15:59:06.987Z,4.10
2023-11-27T16:01:34.883Z,4.00
2023-11-27T16:04:06.090Z,3.90
2023-11-27T16:06:33.479Z,3.90
2023-11-27T16:09:00.770Z,4.00
2023-11-27T16:11:28.425Z,3.90
2023-11-27T16:13:57.669Z,3.90
2023-11-27T16:16:26.193Z,3.80
2023-11-27T16:18:54.766Z,3.80
2023-11-27T16:21:22.572Z,3.70
2023-11-27T16:23:49.846Z,3.80
2023-11-27T16:26:19.218Z,3.70
2023-11-27T16:28:47.768Z,3.80
2023-11-27T16:31:16.326Z,3.70
2023-11-27T16:33:45.735Z,3.80
2023-11-27T16:36:14.293Z,3.70
2023-11-27T16:38:41.635Z,3.80
2023-11-27T16:41:09.101Z,3.80
2023-11-27T16:43:37.639Z,3.80
2023-11-27T16:46:10.851Z,3.80
2023-11-27T16:48:38.386Z,3.80
2023-11-27T16:51:06.265Z,3.80
2023-11-27T16:53:33.614Z,3.80
2023-11-27T16:56:03.043Z,3.80
2023-11-27T16:58:33.142Z,3.80
2023-11-27T17:01:08.049Z,3.90
2023-11-27T17:03:36.535Z,3.90
2023-11-27T17:06:04.443Z,3.90
2023-11-27T17:08:34.573Z,4.00
2023-11-27T17:11:02.552Z,4.10
2023-11-27T17:13:30.039Z,4.10
2023-11-27T17:15:58.052Z,4.20
2023-11-27T17:18:25.374Z,4.20
2023-11-27T17:20:52.623Z,4.20
2023-11-27T17:23:19.868Z,4.20
2023-11-27T17:25:48.007Z,4.30
2023-11-27T17:28:16.275Z,4.30
2023-11-27T17:30:44.874Z,4.20
2023-11-27T17:33:12.728Z,4.20
2023-11-27T17:35:40.328Z,4.20
2023-11-27T17:38:09.550Z,4.20
2023-11-27T17:40:37.417Z,4.20
2023-11-27T17:43:04.901Z,4.20
2023-11-27T17:45:33.289Z,4.20
2023-11-27T17:48:02.268Z,4.20
2023-11-27T17:50:30.982Z,4.20
2023-11-27T17:52:59.376Z,4.10
2023-11-27T17:55:34.037Z,4.10
2023-11-27T17:58:06.400Z,4.10
2023-11-27T18:00:33.567Z,4.10
2023-11-27T18:03:01.047Z,4.10
2023-11-27T18:05:29.617Z,4.10
2023-11-27T18:07:58.176Z,4.00
2023-11-27T18:10:25.994Z,3.90
2023-11-27T18:12:54.474Z,3.90
2023-11-27T18:15:22.814Z,3.90
2023-11-27T18:17:51.969Z,3.80
2023-11-27T18:20:21.549Z,3.90
2023-11-27T18:22:49.492Z,3.80
2023-11-27T18:25:23.732Z,3.80
2023-11-27T18:27:57.116Z,3.90
2023-11-27T18:30:24.468Z,3.90
2023-11-27T18:32:51.689Z,3.90
2023-11-27T18:35:20.472Z,3.90
2023-11-27T18:37:49.386Z,3.90
2023-11-27T18:40:19.471Z,3.80
2023-11-27T18:42:52.383Z,3.80
2023-11-27T18:45:23.934Z,3.80
2023-11-27T18:47:52.352Z,3.80
2023-11-27T18:50:20.538Z,3.90
2023-11-27T18:52:49.019Z,3.90
2023-11-27T18:55:16.585Z,3.90
2023-11-27T18:57:44.308Z,3.90
2023-11-27T19:00:18.595Z,3.90
2023-11-27T19:02:46.006Z,3.90
2023-11-27T19:05:14.347Z,3.90
2023-11-27T19:07:42.850Z,3.80
2023-11-27T19:10:12.248Z,3.90
2023-11-27T19:12:41.712Z,3.80
2023-11-27T19:15:09.810Z,3.80
2023-11-27T19:17:38.923Z,3.80
2023-11-27T19:20:11.686Z,3.90
2023-11-27T19:22:41.788Z,3.80
2023-11-27T19:25:12.106Z,3.80
2023-11-27T19:27:40.519Z,3.80
2023-11-27T19:30:11.537Z,3.80
2023-11-27T19:32:40.795Z,3.90
2023-11-27T19:35:11.979Z,3.90
2023-11-27T19:37:39.304Z,3.90
2023-11-27T19:40:08.629Z,3.90
2023-11-27T19:42:35.937Z,3.90
2023-11-27T19:45:03.274Z,3.90
2023-11-27T19:47:32.183Z,3.90
2023-11-27T19:50:00.575Z,3.90
2023-11-27T19:52:28.161Z,3.90
2023-11-27T19:54:56.823Z,3.90
2023-11-27T19:57:24.088Z,3.90
2023-11-27T19:59:53.554Z,3.80
2023-11-27T20:02:22.160Z,3.80
2023-11-27T20:04:50.462Z,3.80
2023-11-27T20:07:18.763Z,3.80
2023-11-27T20:09:46.164Z,3.80
2023-11-27T20:12:13.908Z,3.80
2023-11-27T20:14:41.261Z,3.80
2023-11-27T20:17:08.586Z,3.80
2023-11-27T20:19:36.465Z,3.80
2023-11-27T20:22:04.703Z,3.80
2023-11-27T20:24:33.244Z,3.80
2023-11-27T20:27:00.546Z,3.80
2023-11-27T20:29:28.681Z,3.90
2023-11-27T20:31:56.513Z,3.90
2023-11-27T20:34:24.090Z,3.90
2023-11-27T20:36:51.469Z,3.90
2023-11-27T20:39:19.834Z,4.00
2023-11-27T20:41:47.176Z,3.90
2023-11-27T20:44:14.538Z,3.90
2023-11-27T20:46:41.940Z,3.90
2023-11-27T20:49:12.164Z,3.90
2023-11-27T20:51:39.408Z,3.90
2023-11-27T20:54:08.911Z,3.90
2023-11-27T20:56:36.537Z,3.90
2023-11-27T20:59:04.106Z,4.00
2023-11-27T21:01:31.517Z,4.00
2023-11-27T21:04:02.175Z,4.00
2023-11-27T21:06:29.547Z,4.00
2023-11-27T21:08:56.823Z,4.10
2023-11-27T21:11:27.261Z,4.00
2023-11-27T21:13:56.387Z,4.00
2023-11-27T21:16:23.831Z,4.00
2023-11-27T21:18:51.111Z,4.00
2023-11-27T21:21:19.125Z,4.00
2023-11-27T21:23:46.408Z,4.00
2023-11-27T21:26:14.072Z,4.00
2023-11-27T21:28:43.207Z,4.10
2023-11-27T21:31:11.243Z,4.10
2023-11-27T21:33:39.214Z,4.00
2023-11-27T21:36:07.580Z,4.10
2023-11-27T21:38:34.994Z,4.20
2023-11-27T21:41:02.346Z,4.10
2023-11-27T21:43:29.753Z,4.10
2023-11-27T21:45:57.115Z,4.10
2023-11-27T21:48:24.427Z,4.10
2023-11-27T21:50:51.800Z,4.00
2023-11-27T21:53:19.247Z,4.10
2023-11-27T21:55:47.092Z,4.10
2023-11-27T21:58:15.439Z,4.10
2023-11-27T22:00:42.894Z,4.10
2023-11-27T22:03:10.607Z,4.20
2023-11-27T22:05:38.214Z,4.20
2023-11-27T22:08:11.167Z,4.20
2023-11-27T22:10:38.454Z,4.10
2023-11-27T22:13:05.797Z,4.10
2023-11-27T22:15:34.084Z,4.10
2023-11-27T22:18:02.340Z,4.10
2023-11-27T22:20:31.498Z,4.10
2023-11-27T22:23:00.635Z,4.10
2023-11-27T22:25:28.150Z,4.10
2023-11-27T22:27:57.748Z,4.20
2023-11-27T22:30:24.946Z,4.30
2023-11-27T22:32:55.056Z,4.30
2023-11-27T22:35:29.666Z,4.20
2023-11-27T22:37:57.137Z,4.20
2023-11-27T22:40:25.112Z,4.20
2023-11-27T22:42:52.431Z,4.10
2023-11-27T22:45:19.590Z,4.10
2023-11-27T22:47:47.118Z,4.10
2023-11-27T22:50:14.295Z,4.10
2023-11-27T22:52:41.679Z,4.10
2023-11-27T22:55:09.554Z,4.10
2023-11-27T22:57:36.723Z,4.10
2023-11-27T23:00:06.642Z,4.10
2023-11-27T23:02:34.043Z,4.10
2023-11-27T23:05:01.503Z,4.20
2023-11-27T23:07:31.180Z,4.20
2023-11-27T23:10:01.899Z,4.20
2023-11-27T23:12:30.261Z,4.20
2023-11-27T23:14:57.441Z,4.20
2023-11-27T23:17:24.694Z,4.20
2023-11-27T23:19:52.505Z,4.20
2023-11-27T23:22:20.331Z,4.20
2023-11-27T23:24:47.679Z,4.20
2023-11-27T23:27:17.203Z,4.10
2023-11-27T23:29:50.565Z,4.10
2023-11-27T23:32:17.783Z,4.00
2023-11-27T23:34:45.610Z,4.00
2023-11-27T23:37:17.843Z,4.00
2023-11-27T23:39:45.048Z,4.00
2023-11-27T23:42:12.582Z,4.00
2023-11-27T23:44:41.025Z,4.10
2023-11-27T23:47:08.474Z,4.10
2023-11-27T23:49:38.613Z,4.10
2023-11-27T23:52:06.083Z,4.10
2023-11-27T23:54:33.558Z,4.10
2023-11-27T23:57:00.690Z,4.10
2023-11-27T23:59:27.845Z,4.20
